Time;durP1;ratioP1;P1;durP2;ratioP2;P2;SDS_P1;SDS_P2;PMS_P1;PMS_P2;Temp;Humidity;BMP_temperature;BMP_pressure;BME280_temperature;BME280_humidity;BME280_pressure;Samples;Min_cycle;Max_cycle;Signal;HPM_P1;HPM_P2
2023/03/29 00:02:10;;;;;;;;;;;;;;;17.28;46.29;100854.84;4997795;28;1983;-47
2023/03/29 00:04:35;;;;;;;;;;;;;;;16.70;46.64;100864.09;4998519;28;1064;-47
2023/03/29 00:07:03;;;;;;;;;;;;;;;16.29;46.49;100857.72;4998250;28;989;-46
2023/03/29 00:09:30;;;;;;;;;;;;;;;17.35;46.23;100860.03;4997831;28;1068;-48
2023/03/29 00:11:56;;;;;;;;;;;;;;;16.63;46.88;100860.78;4998050;28;1196;-48
2023/03/29 00:14:22;;;;;;;;;;;;;;;16.33;46.08;100865.13;4998347;28;969;-48
2023/03/29 00:16:47;;;;;;;;;;;;;;;17.19;46.34;100864.72;4998073;28;1100;-49
2023/03/29 00:19:13;;;;;;;;;;;;;;;16.75;47.02;100866.06;4998725;28;1100;-49
2023/03/29 00:21:38;;;;;;;;;;;;;;;16.47;46.41;100856.41;4998411;28;1898;-50
2023/03/29 00:24:04;;;;;;;;;;;;;;;17.27;46.29;100866.91;4998011;28;1088;-44
2023/03/29 00:26:29;;;;;;;;;;;;;;;17.17;46.22;100872.44;4997821;28;1175;-46
2023/03/29 00:28:55;;;;;;;;;;;;;;;16.52;46.72;100868.22;4998188;28;1057;-47
2023/03/29 00:31:21;;;;;;;;;;;;;;;18.11;45.13;100875.53;4998149;28;1128;-47
2023/03/29 00:33:46;;;;;;;;;;;;;;;16.88;47.01;100872.94;4998388;28;1091;-50
2023/03/29 00:36:12;;;;;;;;;;;;;;;16.57;46.25;100870.94;4996065;28;1442;-50
2023/03/29 00:38:38;;;;;;;;;;;;;;;16.94;46.52;100877.34;4997719;28;897;-47
2023/03/29 00:41:03;;;;;;;;;;;;;;;16.91;47.02;100875.16;4996759;28;1969;-46
2023/03/29 00:43:29;;;;;;;;;;;;;;;17.21;46.78;100884.53;4998085;28;1021;-49
2023/03/29 00:45:54;;;;;;;;;;;;;;;18.54;44.19;100877.00;4996210;28;1361;-48
2023/03/29 00:48:25;;;;;;;;;;;;;;;17.13;46.71;100877.63;4997687;28;1216;-50
2023/03/29 00:51:02;;;;;;;;;;;;;;;16.69;46.36;100878.09;4976479;28;1281;-49
2023/03/29 00:53:32;;;;;;;;;;;;;;;17.10;46.79;100880.94;4989636;28;1021;-48
2023/03/29 00:56:05;;;;;;;;;;;;;;;17.10;46.83;100883.69;4996620;28;1220;-46
2023/03/29 00:58:35;;;;;;;;;;;;;;;16.63;46.54;100881.94;4997079;28;1124;-44
2023/03/29 01:01:09;;;;;;;;;;;;;;;16.61;46.62;100898.69;5012349;28;1969;-49
2023/03/29 01:03:45;;;;;;;;;;;;;;;17.28;46.28;100893.31;4996044;28;1419;-49
2023/03/29 01:06:11;;;;;;;;;;;;;;;16.60;46.78;100899.78;4997552;28;1111;-45
2023/03/29 01:08:40;;;;;;;;;;;;;;;16.37;46.56;100895.63;4995610;28;1124;-49
2023/03/29 01:11:15;;;;;;;;;;;;;;;17.08;46.68;100897.69;4996130;28;1193;-48
2023/03/29 01:14:04;;;;;;;;;;;;;;;16.54;46.71;100898.13;4997127;28;1060;-49
2023/03/29 01:16:31;;;;;;;;;;;;;;;16.87;46.89;100902.31;4995868;28;1226;-46
2023/03/29 01:18:58;;;;;;;;;;;;;;;16.76;46.78;100904.22;5012548;28;1409;-46
2023/03/29 01:21:32;;;;;;;;;;;;;;;16.42;46.67;100909.34;4979550;28;1975;-45
2023/03/29 01:24:05;;;;;;;;;;;;;;;17.63;45.56;100902.63;4997221;28;1124;-47
2023/03/29 01:26:52;;;;;;;;;;;;;;;16.62;46.88;100914.06;4996431;28;1324;-48
2023/03/29 01:29:25;;;;;;;;;;;;;;;18.52;44.47;100915.00;5028135;28;1546;-49
2023/03/29 01:31:56;;;;;;;;;;;;;;;17.19;46.64;100914.19;4997149;28;1091;-48
2023/03/29 01:34:24;;;;;;;;;;;;;;;16.68;46.50;100923.97;4995338;28;1021;-51
2023/03/29 01:36:58;;;;;;;;;;;;;;;16.76;46.59;100922.63;4996662;28;1191;-49
2023/03/29 01:39:24;;;;;;;;;;;;;;;17.10;46.67;100922.97;4995593;28;1106;-47
2023/03/29 01:41:56;;;;;;;;;;;;;;;16.66;46.93;100928.06;4995867;28;1968;-49
2023/03/29 01:44:28;;;;;;;;;;;;;;;18.47;44.38;100922.19;4995173;28;1250;-50
2023/03/29 01:46:54;;;;;;;;;;;;;;;17.01;46.85;100930.13;4989165;28;1033;-51
2023/03/29 01:49:22;;;;;;;;;;;;;;;16.85;46.79;100933.91;4975619;28;1221;-49
2023/03/29 01:51:58;;;;;;;;;;;;;;;17.22;46.70;100924.63;4995245;28;934;-48
2023/03/29 01:54:25;;;;;;;;;;;;;;;16.63;46.50;100926.69;4989440;28;1176;-49
2023/03/29 01:56:51;;;;;;;;;;;;;;;16.57;46.20;100925.84;5021414;28;1196;-49
2023/03/29 01:59:19;;;;;;;;;;;;;;;17.23;46.36;100927.09;4994954;28;1125;-51
2023/03/29 02:01:47;;;;;;;;;;;;;;;16.62;46.50;100930.56;5027929;28;1965;-48
2023/03/29 02:04:13;;;;;;;;;;;;;;;18.16;44.97;100935.25;4982521;28;1145;-45
2023/03/29 02:06:39;;;;;;;;;;;;;;;17.12;46.48;100935.63;4995302;28;1169;-49
2023/03/29 02:09:05;;;;;;;;;;;;;;;16.66;46.63;100939.91;4995468;28;1125;-48
2023/03/29 02:11:31;;;;;;;;;;;;;;;17.40;46.13;100946.09;4979022;28;1199;-51
2023/03/29 02:13:57;;;;;;;;;;;;;;;17.00;46.74;100944.09;4996233;28;1141;-48
2023/03/29 02:16:22;;;;;;;;;;;;;;;16.73;46.08;100940.47;4996232;28;1191;-47
2023/03/29 02:18:48;;;;;;;;;;;;;;;17.00;46.28;100946.84;4994798;28;2039;-46
2023/03/29 02:21:27;;;;;;;;;;;;;;;17.03;46.43;100957.31;4996292;28;1898;-49
2023/03/29 02:23:53;;;;;;;;;;;;;;;16.77;47.12;100949.81;4995602;28;1073;-50
2023/03/29 02:26:19;;;;;;;;;;;;;;;18.06;44.95;100944.38;4996686;28;1189;-48
2023/03/29 02:28:45;;;;;;;;;;;;;;;16.98;46.35;100963.59;4995062;28;1153;-50
2023/03/29 02:31:13;;;;;;;;;;;;;;;16.64;45.87;100972.28;4994675;28;1359;-50
2023/03/29 02:33:50;;;;;;;;;;;;;;;17.05;46.48;100974.34;4996932;28;1363;-49
2023/03/29 02:36:22;;;;;;;;;;;;;;;16.90;46.75;100978.72;4999108;28;1126;-50
2023/03/29 02:38:50;;;;;;;;;;;;;;;16.50;46.37;100984.84;4999835;28;1128;-48
2023/03/29 02:41:16;;;;;;;;;;;;;;;17.66;45.60;100981.81;4982799;28;1906;-48
2023/03/29 02:43:42;;;;;;;;;;;;;;;16.83;46.66;100980.00;4998775;28;1168;-51
2023/03/29 02:46:08;;;;;;;;;;;;;;;18.12;44.96;100981.75;4982847;28;1204;-49
2023/03/29 02:48:34;;;;;;;;;;;;;;;17.52;45.81;100984.28;4998532;28;1268;-51
2023/03/29 02:51:00;;;;;;;;;;;;;;;16.87;46.33;100989.38;4997913;28;1197;-50
2023/03/29 02:53:27;;;;;;;;;;;;;;;16.61;45.92;100989.28;4998919;28;1117;-50
2023/03/29 02:55:53;;;;;;;;;;;;;;;16.47;45.34;100991.69;4999004;28;1224;-48
2023/03/29 02:58:19;;;;;;;;;;;;;;;17.10;46.25;100999.91;4999985;28;1072;-50
2023/03/29 03:00:45;;;;;;;;;;;;;;;16.58;46.26;100998.06;4999596;28;1977;-47
2023/03/29 03:03:11;;;;;;;;;;;;;;;17.72;45.52;101001.88;4998249;28;1092;-50
2023/03/29 03:05:37;;;;;;;;;;;;;;;17.08;46.26;100999.34;5031200;28;1330;-49
2023/03/29 03:08:06;;;;;;;;;;;;;;;16.52;46.44;100999.97;4998452;28;1337;-47
2023/03/29 03:10:32;;;;;;;;;;;;;;;16.98;46.43;100998.50;4998789;28;1376;-48
2023/03/29 03:12:58;;;;;;;;;;;;;;;16.83;46.64;101001.97;4998377;28;1214;-49
2023/03/29 03:15:25;;;;;;;;;;;;;;;17.63;45.65;101012.63;4997882;28;1437;-50
2023/03/29 03:17:50;;;;;;;;;;;;;;;18.33;44.37;101002.91;5006578;28;1222;-53
2023/03/29 03:20:16;;;;;;;;;;;;;;;17.08;46.22;101013.09;5031124;28;1395;-50
2023/03/29 03:22:44;;;;;;;;;;;;;;;16.72;45.84;101010.19;4999081;28;1902;-50
2023/03/29 03:25:10;;;;;;;;;;;;;;;17.65;45.87;101015.91;4998314;28;1098;-51
2023/03/29 03:27:36;;;;;;;;;;;;;;;16.96;46.34;101004.25;4999393;28;1153;-51
2023/03/29 03:30:04;;;;;;;;;;;;;;;16.88;46.88;101008.34;4997962;28;1155;-49
2023/03/29 03:32:48;;;;;;;;;;;;;;;17.41;46.17;101010.13;4998648;28;1054;-51
2023/03/29 03:35:20;;;;;;;;;;;;;;;16.74;46.62;101023.66;4999102;28;1017;-52
2023/03/29 03:37:45;;;;;;;;;;;;;;;17.03;46.81;101017.75;4999190;28;1115;-53
2023/03/29 03:40:12;;;;;;;;;;;;;;;17.10;46.72;101015.56;4997456;28;1311;-56
2023/03/29 03:42:39;;;;;;;;;;;;;;;16.60;46.47;101020.56;5013879;28;1906;-57
2023/03/29 03:45:07;;;;;;;;;;;;;;;16.41;45.69;101021.03;4996862;28;1238;-56
2023/03/29 03:47:49;;;;;;;;;;;;;;;17.13;46.48;101028.75;4997356;28;1197;-58
2023/03/29 03:50:23;;;;;;;;;;;;;;;16.58;46.15;101031.00;4996395;28;1448;-52
2023/03/29 03:52:49;;;;;;;;;;;;;;;16.68;46.05;101031.06;4996081;28;1724;-50
2023/03/29 03:55:15;;;;;;;;;;;;;;;17.66;44.74;101038.75;4997952;28;1212;-56
2023/03/29 03:57:40;;;;;;;;;;;;;;;16.70;46.18;101034.34;4998652;28;1105;-55
2023/03/29 04:00:21;;;;;;;;;;;;;;;18.33;43.99;101033.19;4997576;28;2362;-53
2023/03/29 04:03:04;;;;;;;;;;;;;;;17.18;45.95;101038.94;4996230;28;1906;-52
2023/03/29 04:05:32;;;;;;;;;;;;;;;16.68;45.96;101032.97;4997492;28;1244;-51
2023/03/29 04:07:59;;;;;;;;;;;;;;;16.53;45.45;101036.47;4997494;28;1227;-54
2023/03/29 04:10:38;;;;;;;;;;;;;;;17.95;44.89;101039.03;5013152;28;1367;-53
2023/03/29 04:13:14;;;;;;;;;;;;;;;15.97;49.30;101040.50;4994396;28;1373;-50
2023/03/29 04:16:00;;;;;;;;;;;;;;;15.33;50.74;101044.03;4990670;28;1268;-47
2023/03/29 04:18:26;;;;;;;;;;;;;;;17.73;45.02;101040.09;4997026;28;1236;-50
2023/03/29 04:20:55;;;;;;;;;;;;;;;18.68;42.82;101050.69;4997204;28;1910;-52
2023/03/29 04:23:22;;;;;;;;;;;;;;;19.50;40.96;101044.78;4996764;28;1261;-52
2023/03/29 04:25:48;;;;;;;;;;;;;;;19.74;40.40;101046.78;4996972;28;1423;-54
2023/03/29 04:28:34;;;;;;;;;;;;;;;19.93;40.16;101045.00;4986766;28;1360;-54
2023/03/29 04:31:11;;;;;;;;;;;;;;;20.31;39.17;101061.78;4998208;28;1140;-56
2023/03/29 04:33:57;;;;;;;;;;;;;;;20.38;39.00;101064.16;4997200;28;1056;-55
2023/03/29 04:36:23;;;;;;;;;;;;;;;19.42;40.96;101067.44;4996728;28;1292;-54
2023/03/29 04:38:51;;;;;;;;;;;;;;;17.00;46.69;101076.81;5028941;28;1217;-55
2023/03/29 04:41:18;;;;;;;;;;;;;;;19.38;41.58;101071.91;4992674;28;1914;-56
2023/03/29 04:44:16;;;;;;;;;;;;;;;19.54;41.06;101081.69;4984810;28;1425;-45
2023/03/29 04:46:42;;;;;;;;;;;;;;;18.90;42.48;101088.94;5029540;28;1569;-41
2023/03/29 04:49:13;;;;;;;;;;;;;;;17.71;45.32;101091.81;4997733;28;1064;-47
2023/03/29 04:51:43;;;;;;;;;;;;;;;16.77;47.97;101095.38;5029572;28;1227;-49
2023/03/29 04:54:10;;;;;;;;;;;;;;;17.28;46.70;101102.19;4996113;28;1210;-47
2023/03/29 04:56:55;;;;;;;;;;;;;;;17.93;44.99;101104.50;4986834;28;1136;-44
2023/03/29 04:59:41;;;;;;;;;;;;;;;18.95;42.54;101097.19;4995468;28;1304;-42
2023/03/29 05:02:18;;;;;;;;;;;;;;;19.27;41.92;101104.22;4996613;28;1914;-43
2023/03/29 05:04:46;;;;;;;;;;;;;;;19.25;41.71;101107.25;4992284;28;1315;-43
2023/03/29 05:07:16;;;;;;;;;;;;;;;19.09;42.17;101103.75;4995729;28;1213;-41
2023/03/29 05:09:42;;;;;;;;;;;;;;;18.80;42.83;101104.38;4995431;28;1280;-44
2023/03/29 05:12:09;;;;;;;;;;;;;;;18.41;43.88;101110.53;4995810;28;1268;-49
2023/03/29 05:14:50;;;;;;;;;;;;;;;19.53;41.21;101099.38;4995439;28;1435;-49
2023/03/29 05:17:15;;;;;;;;;;;;;;;18.49;43.42;101108.31;4995532;28;1226;-51
2023/03/29 05:19:42;;;;;;;;;;;;;;;18.26;44.29;101105.06;4995905;28;1222;-51
2023/03/29 05:22:08;;;;;;;;;;;;;;;16.97;47.24;101110.31;4996203;28;1911;-50
2023/03/29 05:24:35;;;;;;;;;;;;;;;16.99;47.22;101119.09;4995975;28;1478;-49
2023/03/29 05:27:07;;;;;;;;;;;;;;;16.68;48.26;101110.69;4994926;28;1296;-47
2023/03/29 05:29:35;;;;;;;;;;;;;;;16.40;48.63;101118.19;4995524;28;1295;-49
2023/03/29 05:32:21;;;;;;;;;;;;;;;16.22;49.16;101118.63;4995879;28;1373;-46
2023/03/29 05:34:47;;;;;;;;;;;;;;;16.23;49.34;101123.03;4997023;28;1127;-50
2023/03/29 05:37:13;;;;;;;;;;;;;;;16.49;48.45;101131.44;4995285;28;1203;-50
2023/03/29 05:39:48;;;;;;;;;;;;;;;17.29;46.29;101123.06;4995336;28;1273;-44
2023/03/29 05:42:18;;;;;;;;;;;;;;;18.79;42.94;101124.78;4994608;28;2223;-51
2023/03/29 05:44:56;;;;;;;;;;;;;;;19.47;41.12;101137.22;5015430;28;1228;-48
2023/03/29 05:47:22;;;;;;;;;;;;;;;19.54;40.40;101141.56;4995497;28;1111;-45
2023/03/29 05:49:48;;;;;;;;;;;;;;;18.81;40.74;101132.75;5027984;28;1924;-49
2023/03/29 05:52:19;;;;;;;;;;;;;;;17.96;41.92;101136.97;4996750;28;1208;-44
2023/03/29 05:54:45;;;;;;;;;;;;;;;17.79;41.69;101142.69;4995647;28;1140;-53
2023/03/29 05:57:11;;;;;;;;;;;;;;;17.92;41.84;101138.63;4994799;28;1282;-46
2023/03/29 05:59:38;;;;;;;;;;;;;;;17.85;41.70;101149.03;4995708;28;1362;-50
2023/03/29 06:02:04;;;;;;;;;;;;;;;18.74;39.62;101146.81;4992844;28;1898;-51
2023/03/29 06:04:30;;;;;;;;;;;;;;;19.25;38.17;101147.78;4995943;28;1044;-46
2023/03/29 06:07:19;;;;;;;;;;;;;;;19.50;36.91;101152.34;4990901;28;1418;-51
2023/03/29 06:10:04;;;;;;;;;;;;;;;19.72;36.07;101149.16;5001804;28;1143;-50
2023/03/29 06:12:30;;;;;;;;;;;;;;;19.83;35.97;101150.78;5001956;28;1240;-47
2023/03/29 06:15:03;;;;;;;;;;;;;;;19.91;35.42;101159.56;5002336;28;1264;-47
2023/03/29 06:17:49;;;;;;;;;;;;;;;20.06;35.13;101159.44;5001685;28;1193;-46
2023/03/29 06:20:15;;;;;;;;;;;;;;;20.08;34.88;101154.47;5001650;28;1130;-43
2023/03/29 06:22:46;;;;;;;;;;;;;;;20.08;34.38;101170.22;5001992;28;1983;-46
2023/03/29 06:25:14;;;;;;;;;;;;;;;20.10;34.02;101176.28;5002019;28;1245;-47
2023/03/29 06:27:41;;;;;;;;;;;;;;;20.13;33.44;101171.00;5001222;28;1222;-46
2023/03/29 06:30:07;;;;;;;;;;;;;;;20.17;33.13;101174.00;5001884;28;1426;-47
2023/03/29 06:32:34;;;;;;;;;;;;;;;20.27;33.08;101171.19;5032705;28;1920;-47
2023/03/29 06:35:20;;;;;;;;;;;;;;;20.57;33.08;101174.75;5002647;28;1166;-51
2023/03/29 06:37:53;;;;;;;;;;;;;;;20.65;32.55;101181.56;5001701;28;1181;-51
2023/03/29 06:40:39;;;;;;;;;;;;;;;20.57;32.82;101173.94;4990096;28;1260;-48
2023/03/29 06:43:05;;;;;;;;;;;;;;;19.96;33.55;101171.41;5009376;28;1918;-48
2023/03/29 06:45:43;;;;;;;;;;;;;;;19.15;35.55;101178.97;4999900;28;1221;-47
2023/03/29 06:48:18;;;;;;;;;;;;;;;20.08;33.61;101189.56;5002657;28;1052;-46
2023/03/29 06:50:45;;;;;;;;;;;;;;;20.33;33.14;101180.25;5002946;28;1147;-52
2023/03/29 06:53:14;;;;;;;;;;;;;;;20.50;32.67;101175.09;4982558;28;1235;-52
2023/03/29 06:55:42;;;;;;;;;;;;;;;20.65;32.36;101176.91;5000406;28;1168;-45
2023/03/29 06:58:33;;;;;;;;;;;;;;;20.78;31.94;101175.41;4999957;28;1121;-48
2023/03/29 07:01:06;;;;;;;;;;;;;;;21.12;30.98;101180.00;5018153;28;2021;-48
2023/03/29 07:03:44;;;;;;;;;;;;;;;20.25;32.50;101180.84;5001727;28;1353;-47
2023/03/29 07:06:11;;;;;;;;;;;;;;;20.39;31.99;101173.53;5001594;28;1388;-45
2023/03/29 07:08:42;;;;;;;;;;;;;;;19.10;34.38;101185.34;5001654;28;1158;-50
2023/03/29 07:11:17;;;;;;;;;;;;;;;19.45;33.93;101183.53;4997014;28;1365;-49
2023/03/29 07:14:06;;;;;;;;;;;;;;;19.73;33.24;101183.94;5002347;28;1410;-49
2023/03/29 07:16:35;;;;;;;;;;;;;;;19.51;33.66;101191.78;5001181;28;1407;-44
2023/03/29 07:19:10;;;;;;;;;;;;;;;19.20;34.19;101191.94;5000186;28;1357;-49
2023/03/29 07:21:54;;;;;;;;;;;;;;;19.00;34.70;101199.16;4999367;28;1902;-47
2023/03/29 07:24:27;;;;;;;;;;;;;;;18.65;35.38;101203.59;4998056;28;1178;-49
2023/03/29 07:26:53;;;;;;;;;;;;;;;18.90;35.17;101204.66;4998477;28;1137;-49
2023/03/29 07:29:18;;;;;;;;;;;;;;;19.73;33.52;101200.50;4998248;28;1600;-46
2023/03/29 07:31:44;;;;;;;;;;;;;;;19.36;34.20;101207.28;4993722;28;1345;-52
2023/03/29 07:34:36;;;;;;;;;;;;;;;19.04;35.28;101203.00;4998396;28;1156;-52
2023/03/29 07:37:05;;;;;;;;;;;;;;;18.77;35.89;101201.34;4998245;28;1336;-47
2023/03/29 07:39:32;;;;;;;;;;;;;;;18.69;36.01;101204.69;5014429;28;1222;-49
2023/03/29 07:42:20;;;;;;;;;;;;;;;19.38;34.49;101205.09;4998999;28;1914;-46
2023/03/29 07:44:47;;;;;;;;;;;;;;;19.63;33.84;101208.84;5014525;28;1345;-49
2023/03/29 07:47:14;;;;;;;;;;;;;;;19.72;33.29;101204.34;4997667;28;1200;-48
2023/03/29 07:49:41;;;;;;;;;;;;;;;19.71;32.99;101208.22;4998231;28;1154;-50
2023/03/29 07:52:07;;;;;;;;;;;;;;;19.83;32.66;101210.69;5029755;28;1297;-49
2023/03/29 07:54:33;;;;;;;;;;;;;;;19.91;32.70;101212.00;5011272;28;1230;-52
2023/03/29 07:57:17;;;;;;;;;;;;;;;19.94;32.33;101216.97;4991659;28;1196;-50
2023/03/29 07:59:49;;;;;;;;;;;;;;;19.52;32.67;101212.72;4991956;28;1479;-50
2023/03/29 08:02:22;;;;;;;;;;;;;;;19.43;33.28;101213.34;5013332;28;1911;-47
2023/03/29 08:04:51;;;;;;;;;;;;;;;19.08;33.99;101223.38;4998583;28;1064;-45
2023/03/29 08:07:29;;;;;;;;;;;;;;;19.73;32.74;101205.19;4998773;28;1061;-47
2023/03/29 08:10:19;;;;;;;;;;;;;;;20.41;31.55;101210.00;4998788;28;1212;-57
2023/03/29 08:12:51;;;;;;;;;;;;;;;20.67;31.10;101212.53;4998983;28;1014;-53
2023/03/29 08:15:20;;;;;;;;;;;;;;;20.81;30.71;101199.69;5000944;28;1116;-55
2023/03/29 08:17:46;;;;;;;;;;;;;;;20.97;30.48;101205.06;4996622;28;1894;-48
2023/03/29 08:20:12;;;;;;;;;;;;;;;21.06;30.31;101199.72;4997021;28;1225;-49
2023/03/29 08:22:41;;;;;;;;;;;;;;;21.14;30.20;101205.44;4997165;28;1914;-52
2023/03/29 08:25:16;;;;;;;;;;;;;;;21.12;30.10;101202.13;4998731;28;1184;-46
2023/03/29 08:27:46;;;;;;;;;;;;;;;21.46;30.08;101211.41;4996767;28;1287;-48
2023/03/29 08:30:16;;;;;;;;;;;;;;;21.13;30.84;101203.78;4997052;28;1194;-49
2023/03/29 08:32:42;;;;;;;;;;;;;;;21.09;30.60;101205.47;5029007;28;1268;-46
2023/03/29 08:35:08;;;;;;;;;;;;;;;19.32;32.76;101193.25;4996399;28;1018;-46
2023/03/29 08:37:39;;;;;;;;;;;;;;;19.05;33.09;101207.38;5028452;28;1174;-46
2023/03/29 08:40:05;;;;;;;;;;;;;;;19.58;31.88;101200.56;4996547;28;1154;-47
2023/03/29 08:42:47;;;;;;;;;;;;;;;19.58;31.70;101190.34;4990921;28;1973;-50
2023/03/29 08:45:17;;;;;;;;;;;;;;;19.60;31.37;101187.31;4986914;28;1391;-49
2023/03/29 08:47:49;;;;;;;;;;;;;;;19.42;31.80;101186.03;4996218;28;1210;-43
2023/03/29 08:50:15;;;;;;;;;;;;;;;19.24;31.94;101187.50;4996672;28;1138;-48
2023/03/29 08:52:49;;;;;;;;;;;;;;;18.96;32.29;101195.31;4980307;28;1354;-48
2023/03/29 08:55:44;;;;;;;;;;;;;;;18.53;32.89;101194.78;4996690;28;1422;-47
2023/03/29 08:58:30;;;;;;;;;;;;;;;18.28;33.24;101190.94;4997797;28;1020;-50
2023/03/29 09:00:57;;;;;;;;;;;;;;;18.08;33.32;101187.06;4995886;28;1156;-49
2023/03/29 09:03:46;;;;;;;;;;;;;;;17.93;34.04;101198.06;5015738;28;1232;-49
2023/03/29 09:06:20;;;;;;;;;;;;;;;18.02;34.02;101195.59;5011256;28;1442;-49
2023/03/29 09:08:49;;;;;;;;;;;;;;;18.11;33.59;101193.94;4997608;28;1131;-49
2023/03/29 09:11:24;;;;;;;;;;;;;;;18.26;33.02;101198.66;4996533;28;1149;-47
2023/03/29 09:13:56;;;;;;;;;;;;;;;18.30;33.21;101202.50;4996405;28;1226;-45
2023/03/29 09:16:28;;;;;;;;;;;;;;;18.27;33.20;101197.53;4996095;28;1073;-51
2023/03/29 09:19:00;;;;;;;;;;;;;;;18.41;33.12;101206.06;4979376;28;2341;-50
2023/03/29 09:21:35;;;;;;;;;;;;;;;18.26;32.99;101196.72;4980308;28;1915;-47
2023/03/29 09:24:07;;;;;;;;;;;;;;;18.31;32.93;101204.13;4991987;28;1280;-46
2023/03/29 09:26:52;;;;;;;;;;;;;;;19.26;31.68;101197.13;5005751;28;1283;-46
2023/03/29 09:29:38;;;;;;;;;;;;;;;19.96;30.31;101209.22;4991639;28;1127;-46
2023/03/29 09:32:06;;;;;;;;;;;;;;;20.31;29.87;101224.72;4996051;28;1166;-49
2023/03/29 09:34:37;;;;;;;;;;;;;;;20.47;29.41;101217.13;4979549;28;1341;-46
2023/03/29 09:37:11;;;;;;;;;;;;;;;20.58;29.67;101215.09;4979945;28;1185;-47
2023/03/29 09:39:39;;;;;;;;;;;;;;;20.66;30.12;101216.41;4995146;28;1664;-50
2023/03/29 09:42:10;;;;;;;;;;;;;;;20.78;30.18;101214.09;4994626;28;1914;-48
2023/03/29 09:44:45;;;;;;;;;;;;;;;20.89;30.52;101202.94;4978908;28;1375;-47
2023/03/29 09:47:23;;;;;;;;;;;;;;;21.02;30.79;101208.59;4980679;28;1335;-47
2023/03/29 09:49:50;;;;;;;;;;;;;;;21.12;30.87;101209.59;4979577;28;1286;-54
2023/03/29 09:52:16;;;;;;;;;;;;;;;21.26;30.94;101195.91;5011952;28;1616;-51
2023/03/29 09:54:47;;;;;;;;;;;;;;;21.35;31.18;101205.19;4995311;28;830;-48
2023/03/29 09:57:25;;;;;;;;;;;;;;;21.44;31.09;101206.16;4996884;28;1231;-47
2023/03/29 09:59:51;;;;;;;;;;;;;;;21.57;31.32;101201.88;4995819;28;1242;-52
2023/03/29 10:02:17;;;;;;;;;;;;;;;20.97;32.81;101202.28;4991429;28;1918;-54
2023/03/29 10:04:43;;;;;;;;;;;;;;;20.76;33.54;101199.75;4987328;28;1182;-51
2023/03/29 10:07:19;;;;;;;;;;;;;;;19.82;35.14;101197.97;5012009;28;1160;-50
2023/03/29 10:09:50;;;;;;;;;;;;;;;19.62;35.93;101208.00;4995470;28;1002;-50
2023/03/29 10:12:19;;;;;;;;;;;;;;;20.37;33.63;101203.41;4995581;28;1084;-47
2023/03/29 10:14:45;;;;;;;;;;;;;;;20.79;32.43;101199.19;4995311;28;1172;-46
2023/03/29 10:17:24;;;;;;;;;;;;;;;21.05;30.83;101195.31;4996742;28;1112;-45
2023/03/29 10:20:01;;;;;;;;;;;;;;;21.13;29.91;101195.47;4995456;28;1068;-48
2023/03/29 10:22:31;;;;;;;;;;;;;;;21.17;29.12;101199.31;4994423;28;1906;-45
2023/03/29 10:24:56;;;;;;;;;;;;;;;21.20;28.63;101200.66;4995292;28;1168;-47
2023/03/29 10:27:23;;;;;;;;;;;;;;;21.24;27.54;101204.50;4995392;28;1481;-46
2023/03/29 10:29:48;;;;;;;;;;;;;;;21.14;27.32;101207.34;4994913;28;1103;-49
2023/03/29 10:32:15;;;;;;;;;;;;;;;21.23;26.71;101205.59;4990233;28;1304;-53
2023/03/29 10:34:40;;;;;;;;;;;;;;;21.18;26.05;101198.19;4996541;28;1227;-48
2023/03/29 10:37:07;;;;;;;;;;;;;;;21.27;25.84;101203.88;4996435;28;1533;-49
2023/03/29 10:39:33;;;;;;;;;;;;;;;21.35;25.53;101194.94;4995561;28;1078;-53
2023/03/29 10:41:58;;;;;;;;;;;;;;;21.34;25.30;101192.47;4996377;28;1906;-47
2023/03/29 10:44:31;;;;;;;;;;;;;;;21.34;25.01;101193.28;4995135;28;1239;-47
2023/03/29 10:47:18;;;;;;;;;;;;;;;21.37;24.83;101186.34;4994395;28;1033;-48
2023/03/29 10:49:45;;;;;;;;;;;;;;;21.38;24.82;101196.28;4995602;28;1028;-48
2023/03/29 10:52:15;;;;;;;;;;;;;;;21.40;24.77;101182.97;5011658;28;1060;-50
2023/03/29 10:54:40;;;;;;;;;;;;;;;21.45;24.54;101176.56;4997856;28;1147;-48
2023/03/29 10:57:15;;;;;;;;;;;;;;;21.47;24.40;101169.59;4999944;28;1160;-53
2023/03/29 10:59:47;;;;;;;;;;;;;;;21.50;24.15;101170.94;4999952;28;1100;-60
2023/03/29 11:02:13;;;;;;;;;;;;;;;21.55;23.98;101176.47;4998891;28;1971;-58
2023/03/29 11:04:51;;;;;;;;;;;;;;;21.57;23.55;101182.50;4995813;28;1590;-53
2023/03/29 11:07:32;;;;;;;;;;;;;;;21.49;23.38;101183.97;4997750;28;1172;-52
2023/03/29 11:10:16;;;;;;;;;;;;;;;21.53;23.19;101189.75;4999950;28;1091;-59
2023/03/29 11:13:00;;;;;;;;;;;;;;;21.49;23.06;101195.03;4994456;28;1236;-58
2023/03/29 11:15:52;;;;;;;;;;;;;;;21.31;23.45;101184.78;4994018;28;1247;-59
2023/03/29 11:18:32;;;;;;;;;;;;;;;21.30;23.77;101180.34;4971137;28;1492;-52
2023/03/29 11:21:27;;;;;;;;;;;;;;;21.34;23.88;101182.22;4999617;28;1226;-57
2023/03/29 11:24:26;;;;;;;;;;;;;;;21.56;24.53;101174.50;4974678;28;1569;-58
2023/03/29 11:26:52;;;;;;;;;;;;;;;20.82;25.50;101175.66;4997084;28;1347;-57
2023/03/29 11:29:22;;;;;;;;;;;;;;;20.99;25.34;101166.91;4999518;28;1357;-57
2023/03/29 11:32:06;;;;;;;;;;;;;;;19.59;27.09;101175.47;4999077;28;982;-55
2023/03/29 11:34:44;;;;;;;;;;;;;;;19.38;27.80;101183.03;4999546;28;1296;-56
2023/03/29 11:37:29;;;;;;;;;;;;;;;20.43;26.51;101168.28;4996238;28;1118;-55
2023/03/29 11:40:14;;;;;;;;;;;;;;;20.96;26.07;101167.50;4991756;28;1327;-55
2023/03/29 11:42:40;;;;;;;;;;;;;;;21.35;25.81;101155.41;4997925;28;1902;-56
2023/03/29 11:45:09;;;;;;;;;;;;;;;20.60;26.86;101159.53;4997713;28;1309;-58
2023/03/29 11:47:36;;;;;;;;;;;;;;;20.97;26.23;101163.59;4998222;28;1061;-53
2023/03/29 11:50:05;;;;;;;;;;;;;;;19.31;28.47;101164.00;4998091;28;1228;-54
2023/03/29 11:52:31;;;;;;;;;;;;;;;18.69;29.82;101157.03;4999119;28;1048;-51
2023/03/29 11:55:02;;;;;;;;;;;;;;;20.20;28.02;101172.59;4998960;28;1132;-53
2023/03/29 11:57:33;;;;;;;;;;;;;;;20.60;27.52;101168.66;4992355;28;1064;-46
2023/03/29 12:00:04;;;;;;;;;;;;;;;21.03;26.83;101167.97;5016266;28;1458;-51
2023/03/29 12:02:43;;;;;;;;;;;;;;;21.28;26.37;101161.28;5023890;28;1906;-45
2023/03/29 12:05:11;;;;;;;;;;;;;;;20.72;26.90;101167.47;4995843;28;1069;-49
2023/03/29 12:07:45;;;;;;;;;;;;;;;20.79;27.02;101159.63;5026585;28;1073;-50
2023/03/29 12:10:15;;;;;;;;;;;;;;;20.03;28.68;101165.53;4987602;28;1428;-45
2023/03/29 12:12:49;;;;;;;;;;;;;;;18.72;31.10;101160.06;5027289;28;949;-48
2023/03/29 12:15:16;;;;;;;;;;;;;;;19.98;29.91;101166.41;4998344;28;1124;-47
2023/03/29 12:17:54;;;;;;;;;;;;;;;20.64;29.38;101160.63;4998495;28;1139;-48
2023/03/29 12:20:22;;;;;;;;;;;;;;;20.41;30.08;101170.50;4997723;28;951;-50
2023/03/29 12:22:49;;;;;;;;;;;;;;;20.57;30.08;101169.25;4997089;28;2315;-50
2023/03/29 12:25:16;;;;;;;;;;;;;;;19.99;31.17;101170.00;4992164;28;1311;-49
2023/03/29 12:27:42;;;;;;;;;;;;;;;18.75;33.77;101176.03;4984915;28;1153;-50
2023/03/29 12:30:16;;;;;;;;;;;;;;;18.95;33.56;101175.16;4998314;28;1310;-43
2023/03/29 12:32:45;;;;;;;;;;;;;;;19.95;31.47;101168.91;4998190;28;881;-46
2023/03/29 12:35:29;;;;;;;;;;;;;;;20.69;30.56;101179.91;4998003;28;1100;-52
2023/03/29 12:38:18;;;;;;;;;;;;;;;21.42;29.71;101186.28;4967665;28;1132;-47
2023/03/29 12:41:03;;;;;;;;;;;;;;;20.33;31.82;101194.88;4997168;28;1148;-48
2023/03/29 12:44:02;;;;;;;;;;;;;;;19.13;34.66;101215.09;4976155;28;1207;-48
2023/03/29 12:46:38;;;;;;;;;;;;;;;17.34;38.76;101222.03;4987882;28;1037;-50
2023/03/29 12:49:09;;;;;;;;;;;;;;;17.53;37.11;101227.06;4987038;28;1058;-47
2023/03/29 12:51:34;;;;;;;;;;;;;;;17.61;37.09;101241.13;4998067;28;1052;-48
2023/03/29 12:54:07;;;;;;;;;;;;;;;17.71;37.80;101248.59;4997067;28;1061;-46
2023/03/29 12:56:38;;;;;;;;;;;;;;;18.00;39.42;101259.16;4997457;28;919;-46
2023/03/29 12:59:05;;;;;;;;;;;;;;;18.48;39.00;101275.47;4996502;28;1216;-49
2023/03/29 13:01:32;;;;;;;;;;;;;;;19.12;37.30;101293.38;4992212;28;1906;-47
2023/03/29 13:04:02;;;;;;;;;;;;;;;18.97;37.64;101296.13;5015950;28;1092;-47
2023/03/29 13:06:29;;;;;;;;;;;;;;;19.03;37.62;101303.31;4997137;28;886;-46
2023/03/29 13:09:02;;;;;;;;;;;;;;;19.45;36.75;101293.84;4994764;28;993;-48
2023/03/29 13:11:32;;;;;;;;;;;;;;;19.63;36.76;101299.88;4994850;28;1374;-44